Time;durP1;ratioP1;P1;durP2;ratioP2;P2;SDS_P1;SDS_P2;PMS_P1;PMS_P2;Temp;Humidity;BMP_temperature;BMP_pressure;BME280_temperature;BME280_humidity;BME280_pressure;Samples;Min_cycle;Max_cycle;Signal;HPM_P1;HPM_P2
2022/02/28 00:01:25;;;;;;;10.57;7.20;;;;;;;;;;5007632;28;20584;-86
2022/02/28 00:04:29;;;;;;;11.13;7.00;;;;;;;;;;4995177;28;20584;-86
2022/02/28 00:07:33;;;;;;;12.30;7.67;;;;;;;;;;4997493;28;20959;-86
2022/02/28 00:10:38;;;;;;;13.23;7.07;;;;;;;;;;4997161;28;20591;-86
2022/02/28 00:13:42;;;;;;;15.07;7.67;;;;;;;;;;4988784;28;20546;-86
2022/02/28 00:16:46;;;;;;;10.73;6.73;;;;;;;;;;5003527;28;20647;-86
2022/02/28 00:19:50;;;;;;;10.37;6.60;;;;;;;;;;4996914;28;20631;-86
2022/02/28 00:22:54;;;;;;;12.07;7.33;;;;;;;;;;4997096;28;20588;-86
2022/02/28 00:26:00;;;;;;;11.47;6.80;;;;;;;;;;5008776;28;20615;-86
2022/02/28 00:29:05;;;;;;;9.10;6.50;;;;;;;;;;4997861;28;20528;-86
2022/02/28 00:32:09;;;;;;;12.47;7.20;;;;;;;;;;4989248;28;20541;-86
2022/02/28 00:35:13;;;;;;;11.23;6.43;;;;;;;;;;4977850;28;20604;-86
2022/02/28 00:38:17;;;;;;;11.73;7.43;;;;;;;;;;4992436;23;20677;-85
2022/02/28 00:41:22;;;;;;;10.83;7.20;;;;;;;;;;4971242;28;20603;-85
2022/02/28 00:44:27;;;;;;;11.23;7.13;;;;;;;;;;4960248;28;20598;-85
2022/02/28 00:47:31;;;;;;;11.33;7.50;;;;;;;;;;5042942;28;20630;-85
2022/02/28 00:50:35;;;;;;;11.83;7.57;;;;;;;;;;5052482;28;20594;-85
2022/02/28 00:53:39;;;;;;;13.33;7.30;;;;;;;;;;5041300;28;20910;-85
2022/02/28 00:56:44;;;;;;;11.83;7.03;;;;;;;;;;5030293;28;20629;-85
2022/02/28 00:59:48;;;;;;;13.30;7.73;;;;;;;;;;5046656;28;21211;-85
2022/02/28 01:02:52;;;;;;;14.27;7.10;;;;;;;;;;5061234;28;20538;-85
2022/02/28 01:05:56;;;;;;;13.33;7.27;;;;;;;;;;5049465;28;20550;-85
2022/02/28 01:09:03;;;;;;;12.90;6.87;;;;;;;;;;5061190;28;20551;-85
2022/02/28 01:12:07;;;;;;;9.53;6.63;;;;;;;;;;5021239;28;20587;-85
2022/02/28 01:15:13;;;;;;;12.93;6.60;;;;;;;;;;5014075;28;21082;-85
2022/02/28 01:18:17;;;;;;;10.77;7.00;;;;;;;;;;5036700;28;20616;-85
2022/02/28 01:21:21;;;;;;;13.47;7.23;;;;;;;;;;5052948;28;20578;-85
2022/02/28 01:24:25;;;;;;;12.40;7.83;;;;;;;;;;5064935;28;20534;-85
2022/02/28 01:27:29;;;;;;;14.80;7.63;;;;;;;;;;5055177;28;20637;-85
2022/02/28 01:30:33;;;;;;;10.60;6.93;;;;;;;;;;5040257;28;20581;-85
2022/02/28 01:33:37;;;;;;;14.33;7.37;;;;;;;;;;5076419;28;20862;-85
2022/02/28 01:36:41;;;;;;;14.83;7.87;;;;;;;;;;5050629;28;20711;-85
2022/02/28 01:39:46;;;;;;;13.00;8.00;;;;;;;;;;5033376;28;20594;-85
2022/02/28 01:42:51;;;;;;;13.43;7.43;;;;;;;;;;5038231;28;20590;-85
2022/02/28 01:45:55;;;;;;;12.00;7.47;;;;;;;;;;5056258;28;20892;-85
2022/02/28 01:49:00;;;;;;;10.87;7.33;;;;;;;;;;5033226;28;21096;-85
2022/02/28 01:52:05;;;;;;;14.30;7.13;;;;;;;;;;5062553;28;20585;-85
2022/02/28 01:55:10;;;;;;;13.80;7.77;;;;;;;;;;5052821;28;20539;-85
2022/02/28 01:58:15;;;;;;;12.80;7.47;;;;;;;;;;5043974;28;20634;-85
2022/02/28 02:01:19;;;;;;;14.40;7.60;;;;;;;;;;5035221;28;20630;-85
2022/02/28 02:04:23;;;;;;;13.27;7.37;;;;;;;;;;5064126;28;20538;-85
2022/02/28 02:07:29;;;;;;;11.33;7.33;;;;;;;;;;5052306;28;20640;-85
2022/02/28 02:10:34;;;;;;;15.10;7.37;;;;;;;;;;5067493;28;21183;-85
2022/02/28 02:13:38;;;;;;;12.13;7.30;;;;;;;;;;5032636;28;20547;-85
2022/02/28 02:16:42;;;;;;;16.13;7.80;;;;;;;;;;5043759;28;20622;-85
2022/02/28 02:19:51;;;;;;;13.50;7.43;;;;;;;;;;5033110;28;20602;-85
2022/02/28 02:23:06;;;;;;;12.53;7.40;;;;;;;;;;5039375;28;20583;-85
2022/02/28 02:26:16;;;;;;;11.60;7.40;;;;;;;;;;5032376;28;20535;-85
2022/02/28 02:29:21;;;;;;;14.90;7.93;;;;;;;;;;5032305;28;20551;-85
2022/02/28 02:32:25;;;;;;;10.80;7.30;;;;;;;;;;5024003;28;20532;-85
2022/02/28 02:35:31;;;;;;;14.50;7.83;;;;;;;;;;5046173;28;20552;-85
2022/02/28 02:38:37;;;;;;;12.03;7.30;;;;;;;;;;5062707;28;20586;-85
2022/02/28 02:41:42;;;;;;;11.87;7.33;;;;;;;;;;5046329;28;20595;-85
2022/02/28 02:44:46;;;;;;;12.33;8.03;;;;;;;;;;5032520;28;20535;-85
2022/02/28 02:47:51;;;;;;;14.10;7.70;;;;;;;;;;5031946;28;20618;-85
2022/02/28 02:50:55;;;;;;;15.17;7.53;;;;;;;;;;5053837;28;20582;-85
2022/02/28 02:54:00;;;;;;;12.13;7.67;;;;;;;;;;5023781;28;21116;-85
2022/02/28 02:57:04;;;;;;;12.40;7.40;;;;;;;;;;5023622;28;20622;-85
2022/02/28 03:00:10;;;;;;;12.90;7.67;;;;;;;;;;5028394;28;21222;-85
2022/02/28 03:03:40;;;;;;;10.47;6.97;;;;;;;;;;5065810;28;20581;-85
2022/02/28 03:06:44;;;;;;;14.80;7.40;;;;;;;;;;5062893;28;20621;-85
2022/02/28 03:09:49;;;;;;;10.80;7.37;;;;;;;;;;5051449;28;20601;-85
2022/02/28 03:12:54;;;;;;;11.63;7.60;;;;;;;;;;5050404;28;20598;-85
2022/02/28 03:15:59;;;;;;;13.93;7.83;;;;;;;;;;5032796;28;20964;-85
2022/02/28 03:19:05;;;;;;;15.03;8.00;;;;;;;;;;5043324;28;20591;-85
2022/02/28 03:22:15;;;;;;;14.33;8.60;;;;;;;;;;5063257;28;20582;-85
2022/02/28 03:25:23;;;;;;;13.97;7.43;;;;;;;;;;5061230;28;20534;-85
2022/02/28 03:28:34;;;;;;;12.87;7.83;;;;;;;;;;5052187;28;20602;-85
2022/02/28 03:31:39;;;;;;;11.37;7.07;;;;;;;;;;5011566;28;20532;-85
2022/02/28 03:34:44;;;;;;;11.37;7.27;;;;;;;;;;5022757;28;20556;-85
2022/02/28 03:37:48;;;;;;;12.07;8.03;;;;;;;;;;5042840;28;20666;-85
2022/02/28 03:40:52;;;;;;;11.30;7.50;;;;;;;;;;5055448;28;20650;-85
2022/02/28 03:43:56;;;;;;;16.80;7.97;;;;;;;;;;5031693;28;20586;-85
2022/02/28 03:47:08;;;;;;;11.37;7.43;;;;;;;;;;5043408;28;20626;-85
2022/02/28 03:50:30;;;;;;;12.93;7.80;;;;;;;;;;5054455;28;20586;-85
2022/02/28 03:53:34;;;;;;;17.23;7.57;;;;;;;;;;5050591;28;20545;-85
2022/02/28 03:56:42;;;;;;;13.50;7.87;;;;;;;;;;5050635;28;20609;-85
2022/02/28 03:59:47;;;;;;;15.10;7.83;;;;;;;;;;5043752;28;20601;-85
2022/02/28 04:02:51;;;;;;;11.63;7.73;;;;;;;;;;5030339;28;20587;-85
2022/02/28 04:05:55;;;;;;;12.37;7.73;;;;;;;;;;5042962;28;20585;-85
2022/02/28 04:09:00;;;;;;;11.97;7.63;;;;;;;;;;5050233;28;20964;-85
2022/02/28 04:12:04;;;;;;;14.83;7.87;;;;;;;;;;5049649;28;20630;-85
2022/02/28 04:15:10;;;;;;;14.40;8.07;;;;;;;;;;5021729;28;20548;-85
2022/02/28 04:18:14;;;;;;;12.07;7.43;;;;;;;;;;5056312;28;20623;-85
2022/02/28 04:21:48;;;;;;;15.20;8.03;;;;;;;;;;5040725;28;20584;-85
2022/02/28 04:24:53;;;;;;;12.67;6.97;;;;;;;;;;5021836;28;20595;-85
2022/02/28 04:27:57;;;;;;;15.03;7.83;;;;;;;;;;5031359;28;20641;-85
2022/02/28 04:31:03;;;;;;;13.97;7.70;;;;;;;;;;5045368;28;20583;-85
2022/02/28 04:34:08;;;;;;;11.13;7.43;;;;;;;;;;5030398;28;20539;-85
2022/02/28 04:37:12;;;;;;;12.23;7.63;;;;;;;;;;5029877;28;20638;-85
2022/02/28 04:40:16;;;;;;;13.60;8.20;;;;;;;;;;5031022;28;20654;-85
2022/02/28 04:43:20;;;;;;;14.83;8.03;;;;;;;;;;5030110;28;20890;-85
2022/02/28 04:46:24;;;;;;;15.80;8.40;;;;;;;;;;5029484;28;21074;-85
2022/02/28 04:49:31;;;;;;;14.90;7.27;;;;;;;;;;5036908;28;21171;-85
2022/02/28 04:52:36;;;;;;;13.80;8.40;;;;;;;;;;5061432;28;20527;-85
2022/02/28 04:55:40;;;;;;;11.33;7.53;;;;;;;;;;5049877;28;20534;-85
2022/02/28 04:58:45;;;;;;;14.33;7.83;;;;;;;;;;5048163;28;20620;-85
2022/02/28 05:01:54;;;;;;;12.57;7.63;;;;;;;;;;5050402;28;20535;-85
2022/02/28 05:05:16;;;;;;;13.47;7.83;;;;;;;;;;5059609;28;20595;-85
2022/02/28 05:08:20;;;;;;;11.00;7.60;;;;;;;;;;5040595;28;20653;-84
2022/02/28 05:11:25;;;;;;;13.00;7.77;;;;;;;;;;5049390;28;20649;-85
2022/02/28 05:14:29;;;;;;;11.73;7.43;;;;;;;;;;5061009;28;20585;-85
2022/02/28 05:17:34;;;;;;;13.33;7.93;;;;;;;;;;5049409;28;20625;-85
2022/02/28 05:20:39;;;;;;;18.77;8.97;;;;;;;;;;5037863;28;20586;-85
2022/02/28 05:23:43;;;;;;;16.27;7.93;;;;;;;;;;5018357;28;20570;-85
2022/02/28 05:26:47;;;;;;;12.13;7.60;;;;;;;;;;5049695;28;20630;-85
2022/02/28 05:29:52;;;;;;;14.10;7.33;;;;;;;;;;5043986;28;20587;-85
2022/02/28 05:32:57;;;;;;;11.43;7.37;;;;;;;;;;5041098;28;20527;-85
2022/02/28 05:36:05;;;;;;;10.90;7.33;;;;;;;;;;5029873;28;20551;-85
2022/02/28 05:39:13;;;;;;;13.03;8.10;;;;;;;;;;5043013;28;20585;-85
2022/02/28 05:42:17;;;;;;;12.50;7.83;;;;;;;;;;5009849;28;20544;-85
2022/02/28 05:45:22;;;;;;;12.80;6.80;;;;;;;;;;5043901;28;20553;-85
2022/02/28 05:48:33;;;;;;;12.03;7.27;;;;;;;;;;5030868;28;21159;-85
2022/02/28 05:51:38;;;;;;;14.60;8.57;;;;;;;;;;5082821;28;20966;-85
2022/02/28 05:54:42;;;;;;;12.87;7.87;;;;;;;;;;5026049;28;21041;-85
2022/02/28 05:57:48;;;;;;;13.77;8.43;;;;;;;;;;5071935;28;20613;-86
2022/02/28 06:00:52;;;;;;;14.07;7.77;;;;;;;;;;5050505;28;20601;-85
2022/02/28 06:03:56;;;;;;;13.63;7.90;;;;;;;;;;5032619;28;21148;-85
2022/02/28 06:07:00;;;;;;;12.33;8.03;;;;;;;;;;5051304;28;20637;-85
2022/02/28 06:10:05;;;;;;;12.77;8.27;;;;;;;;;;5057347;28;20574;-85
2022/02/28 06:13:09;;;;;;;11.83;7.30;;;;;;;;;;5044043;28;20540;-85
2022/02/28 06:16:13;;;;;;;13.67;7.73;;;;;;;;;;5045058;28;20582;-85
2022/02/28 06:19:17;;;;;;;13.80;8.13;;;;;;;;;;5039384;28;20613;-85
2022/02/28 06:22:22;;;;;;;11.43;7.70;;;;;;;;;;5035480;28;20618;-85
2022/02/28 06:25:26;;;;;;;14.83;8.13;;;;;;;;;;5049506;28;20957;-85
2022/02/28 06:28:32;;;;;;;13.90;8.07;;;;;;;;;;5034473;28;20645;-85
2022/02/28 06:31:43;;;;;;;15.97;8.50;;;;;;;;;;5069182;28;20656;-84
2022/02/28 06:34:47;;;;;;;15.47;8.80;;;;;;;;;;5043960;28;20600;-84
2022/02/28 06:37:51;;;;;;;13.20;8.47;;;;;;;;;;5079446;23;20684;-87
2022/02/28 06:40:55;;;;;;;13.17;8.53;;;;;;;;;;5092057;28;20575;-87
2022/02/28 06:44:00;;;;;;;13.23;8.60;;;;;;;;;;5090830;28;20580;-86
2022/02/28 06:47:04;;;;;;;11.60;8.07;;;;;;;;;;5073978;28;20568;-87
2022/02/28 06:50:10;;;;;;;12.30;7.90;;;;;;;;;;5060498;28;20624;-87
2022/02/28 06:53:18;;;;;;;14.20;8.37;;;;;;;;;;5060745;28;21146;-86
2022/02/28 06:56:23;;;;;;;17.63;10.73;;;;;;;;;;5060579;28;21099;-86
2022/02/28 06:59:29;;;;;;;34.27;19.93;;;;;;;;;;5065200;28;20565;-86
2022/02/28 07:02:34;;;;;;;35.23;20.47;;;;;;;;;;5055029;28;20578;-86
2022/02/28 07:05:48;;;;;;;27.20;17.30;;;;;;;;;;5063723;28;20620;-86
2022/02/28 07:08:52;;;;;;;30.77;17.57;;;;;;;;;;5061157;28;20635;-86
2022/02/28 07:11:56;;;;;;;32.97;17.77;;;;;;;;;;5065449;28;20593;-87
2022/02/28 07:15:01;;;;;;;32.57;18.80;;;;;;;;;;5069691;28;21134;-87
2022/02/28 07:18:05;;;;;;;29.10;16.93;;;;;;;;;;5061597;28;20620;-86
2022/02/28 07:21:10;;;;;;;24.87;15.07;;;;;;;;;;5063691;28;20590;-86
2022/02/28 07:24:14;;;;;;;23.73;13.67;;;;;;;;;;5057081;28;21118;-86
2022/02/28 07:27:19;;;;;;;18.67;13.03;;;;;;;;;;5082687;28;20645;-87
2022/02/28 07:30:24;;;;;;;18.97;13.63;;;;;;;;;;5079769;28;20585;-87
2022/02/28 07:33:28;;;;;;;22.33;13.43;;;;;;;;;;5059977;28;20577;-87
2022/02/28 07:36:32;;;;;;;17.67;12.13;;;;;;;;;;5057851;28;20649;-86
2022/02/28 07:39:36;;;;;;;18.03;12.37;;;;;;;;;;5040804;28;20542;-86
2022/02/28 07:42:41;;;;;;;17.07;11.23;;;;;;;;;;5071004;28;20585;-87
2022/02/28 07:45:47;;;;;;;19.50;10.53;;;;;;;;;;5070053;28;21178;-87
2022/02/28 07:48:50;;;;;;;14.30;10.13;;;;;;;;;;5059042;28;20990;-85
2022/02/28 07:51:54;;;;;;;17.83;10.37;;;;;;;;;;5070055;28;20665;-85
2022/02/28 07:54:58;;;;;;;14.27;9.63;;;;;;;;;;5047043;28;20616;-85
2022/02/28 07:58:03;;;;;;;14.43;9.17;;;;;;;;;;5058487;28;20652;-86
2022/02/28 08:01:07;;;;;;;16.00;10.30;;;;;;;;;;5059646;28;20541;-85
2022/02/28 08:04:10;;;;;;;21.20;8.80;;;;;;;;;;5059194;28;20537;-85
2022/02/28 08:07:14;;;;;;;14.03;8.03;;;;;;;;;;5070124;28;20644;-86
2022/02/28 08:10:18;;;;;;;13.67;9.30;;;;;;;;;;5059260;28;20541;-85
2022/02/28 08:13:23;;;;;;;18.17;8.93;;;;;;;;;;5059110;28;20529;-86
2022/02/28 08:16:27;;;;;;;13.97;8.80;;;;;;;;;;5070408;28;20546;-86
2022/02/28 08:19:31;;;;;;;13.97;8.40;;;;;;;;;;5041469;28;20574;-86
2022/02/28 08:22:35;;;;;;;13.73;8.93;;;;;;;;;;5057781;28;20612;-85
2022/02/28 08:25:42;;;;;;;13.93;8.87;;;;;;;;;;5049965;28;20573;-85
2022/02/28 08:28:46;;;;;;;12.97;9.20;;;;;;;;;;5058036;28;20644;-86
2022/02/28 08:31:50;;;;;;;17.23;10.17;;;;;;;;;;5050041;28;20590;-87
2022/02/28 08:34:54;;;;;;;16.60;9.73;;;;;;;;;;5080204;28;20182;-86
2022/02/28 08:37:58;;;;;;;16.17;9.90;;;;;;;;;;5069780;28;20979;-85
2022/02/28 08:41:02;;;;;;;14.37;9.23;;;;;;;;;;5073612;28;20202;-86
2022/02/28 08:44:07;;;;;;;14.87;8.43;;;;;;;;;;5058440;28;20183;-86
2022/02/28 08:47:11;;;;;;;19.23;9.40;;;;;;;;;;5057967;28;20696;-86
2022/02/28 08:50:16;;;;;;;12.23;8.87;;;;;;;;;;5058722;28;20178;-85
2022/02/28 08:53:20;;;;;;;16.47;9.47;;;;;;;;;;5057999;28;20210;-86
2022/02/28 08:56:25;;;;;;;13.87;8.87;;;;;;;;;;5081432;28;20174;-86
2022/02/28 08:59:30;;;;;;;17.97;9.30;;;;;;;;;;5049927;28;20179;-86
2022/02/28 09:02:35;;;;;;;13.27;8.83;;;;;;;;;;5038290;28;20180;-86
2022/02/28 09:05:39;;;;;;;12.73;8.10;;;;;;;;;;5049890;28;20175;-86
2022/02/28 09:08:43;;;;;;;14.13;9.10;;;;;;;;;;5049560;28;20215;-86
2022/02/28 09:11:47;;;;;;;13.27;9.17;;;;;;;;;;5054117;28;20210;-86
2022/02/28 09:14:52;;;;;;;15.03;9.27;;;;;;;;;;5058390;28;20175;-87
2022/02/28 09:17:57;;;;;;;13.77;8.57;;;;;;;;;;5058455;28;20210;-88
2022/02/28 09:21:01;;;;;;;15.50;10.00;;;;;;;;;;5081196;28;20187;-88
2022/02/28 09:24:06;;;;;;;15.40;8.97;;;;;;;;;;5069929;28;20175;-88
2022/02/28 09:27:10;;;;;;;10.67;7.87;;;;;;;;;;5057969;28;20214;-87
2022/02/28 09:30:14;;;;;;;12.50;7.70;;;;;;;;;;5069743;28;20637;-87
2022/02/28 09:33:23;;;;;;;14.03;8.67;;;;;;;;;;5060396;28;20664;-87
2022/02/28 09:36:27;;;;;;;13.67;8.67;;;;;;;;;;5061628;28;20183;-87
2022/02/28 09:39:32;;;;;;;10.70;7.53;;;;;;;;;;5062454;28;20167;-87
2022/02/28 09:42:46;;;;;;;16.70;8.33;;;;;;;;;;5062963;28;20519;-87
2022/02/28 09:46:10;;;;;;;9.97;7.57;;;;;;;;;;5076240;28;20183;-87
2022/02/28 09:49:40;;;;;;;10.03;7.90;;;;;;;;;;5084768;28;20179;-87
2022/02/28 09:53:06;;;;;;;11.30;7.73;;;;;;;;;;5075563;28;20211;-87
2022/02/28 09:56:27;;;;;;;11.93;8.20;;;;;;;;;;5064302;28;20527;-88
2022/02/28 09:59:36;;;;;;;11.83;8.00;;;;;;;;;;5073159;28;20179;-87
2022/02/28 10:02:45;;;;;;;10.77;7.10;;;;;;;;;;5062097;28;20183;-88
2022/02/28 10:05:58;;;;;;;10.73;7.90;;;;;;;;;;5061154;28;20179;-88
2022/02/28 10:09:05;;;;;;;10.53;7.33;;;;;;;;;;5061047;28;20218;-89
2022/02/28 10:12:10;;;;;;;11.33;7.33;;;;;;;;;;5073505;28;20207;-88
2022/02/28 10:15:17;;;;;;;12.33;7.70;;;;;;;;;;5061342;28;20644;-87
2022/02/28 10:18:21;;;;;;;12.27;7.43;;;;;;;;;;5085000;28;20570;-87
2022/02/28 10:21:36;;;;;;;10.43;7.33;;;;;;;;;;5061394;28;20179;-87
2022/02/28 10:24:42;;;;;;;15.03;9.50;;;;;;;;;;5062364;28;20187;-88
2022/02/28 10:28:19;;;;;;;13.00;9.23;;;;;;;;;;5074083;28;20545;-87
2022/02/28 10:31:44;;;;;;;14.23;8.33;;;;;;;;;;5075445;28;20183;-87
2022/02/28 10:38:51;;;;;;;12.40;8.53;;;;;;;;;;5074946;28;20546;-87
2022/02/28 10:42:12;;;;;;;12.83;8.80;;;;;;;;;;5061431;28;20179;-88
2022/02/28 10:45:25;;;;;;;12.70;8.07;;;;;;;;;;5060544;28;20195;-87
2022/02/28 10:48:29;;;;;;;11.77;7.73;;;;;;;;;;5060883;28;20561;-87
2022/02/28 10:51:58;;;;;;;13.40;8.00;;;;;;;;;;5072852;28;20175;-87
2022/02/28 10:55:06;;;;;;;9.80;7.40;;;;;;;;;;5060951;28;20174;-87
2022/02/28 10:58:13;;;;;;;10.83;7.50;;;;;;;;;;5083680;28;20214;-86
2022/02/28 11:01:17;;;;;;;8.57;6.90;;;;;;;;;;5072008;28;20183;-86
2022/02/28 11:04:38;;;;;;;12.60;7.33;;;;;;;;;;5060215;28;20198;-86
2022/02/28 11:07:48;;;;;;;8.93;6.90;;;;;;;;;;5060373;28;20218;-86
2022/02/28 11:10:55;;;;;;;9.63;6.93;;;;;;;;;;5061104;28;20175;-87
2022/02/28 11:13:59;;;;;;;8.83;6.20;;;;;;;;;;5061632;28;20202;-85
2022/02/28 11:17:03;;;;;;;8.97;6.93;;;;;;;;;;5060242;28;20194;-86
2022/02/28 11:20:11;;;;;;;10.97;7.13;;;;;;;;;;5060866;28;20190;-86
2022/02/28 11:23:19;;;;;;;9.40;7.40;;;;;;;;;;5060661;28;20171;-86
2022/02/28 11:26:23;;;;;;;11.27;7.17;;;;;;;;;;5061055;28;20621;-86
2022/02/28 11:29:29;;;;;;;10.10;7.40;;;;;;;;;;5068101;28;20182;-86
2022/02/28 11:32:33;;;;;;;11.50;6.80;;;;;;;;;;5082434;28;20218;-86
2022/02/28 11:35:40;;;;;;;9.70;6.93;;;;;;;;;;5070750;28;20195;-86
2022/02/28 11:38:45;;;;;;;9.33;6.70;;;;;;;;;;5070425;28;20222;-86
2022/02/28 11:41:49;;;;;;;10.07;6.87;;;;;;;;;;5049498;28;20187;-86
2022/02/28 11:44:55;;;;;;;10.13;6.63;;;;;;;;;;5070469;28;20187;-86
2022/02/28 11:48:26;;;;;;;9.27;7.20;;;;;;;;;;5071355;28;20222;-86
2022/02/28 11:51:41;;;;;;;8.90;6.87;;;;;;;;;;5061425;28;20655;-86
2022/02/28 11:54:45;;;;;;;12.17;6.80;;;;;;;;;;5059594;28;20175;-87
2022/02/28 11:57:55;;;;;;;9.00;6.43;;;;;;;;;;5069930;28;20230;-87
2022/02/28 12:01:11;;;;;;;11.40;6.77;;;;;;;;;;5058879;28;20183;-87
2022/02/28 12:04:21;;;;;;;9.27;6.80;;;;;;;;;;5058415;28;20531;-86
2022/02/28 12:07:31;;;;;;;8.70;6.80;;;;;;;;;;5070404;28;20215;-87
2022/02/28 12:10:37;;;;;;;12.13;6.47;;;;;;;;;;5069643;28;20198;-87
2022/02/28 12:13:41;;;;;;;9.20;6.53;;;;;;;;;;5069617;28;20222;-87
2022/02/28 12:20:33;;;;;;;11.83;6.27;;;;;;;;;;5081042;28;20195;-87
2022/02/28 12:23:46;;;;;;;9.73;7.20;;;;;;;;;;5069574;28;20190;-87
2022/02/28 12:27:15;;;;;;;7.17;5.60;;;;;;;;;;5050015;28;20194;-87
2022/02/28 12:30:36;;;;;;;9.07;6.13;;;;;;;;;;5065873;28;20289;-86
2022/02/28 12:33:40;;;;;;;9.93;6.33;;;;;;;;;;5046318;28;20681;-87
2022/02/28 12:36:45;;;;;;;8.00;5.90;;;;;;;;;;5069923;28;20194;-87
2022/02/28 12:39:52;;;;;;;7.77;5.80;;;;;;;;;;5043113;23;20236;-83
2022/02/28 12:42:57;;;;;;;7.93;5.80;;;;;;;;;;5019049;28;20185;-83
2022/02/28 12:46:05;;;;;;;8.80;6.10;;;;;;;;;;5019341;28;20181;-83
2022/02/28 12:49:12;;;;;;;9.47;6.13;;;;;;;;;;5067283;28;20221;-83
2022/02/28 12:52:17;;;;;;;8.67;6.13;;;;;;;;;;5090060;28;20183;-83
2022/02/28 12:55:22;;;;;;;7.87;6.03;;;;;;;;;;5094788;28;20190;-82
2022/02/28 12:58:35;;;;;;;8.23;5.60;;;;;;;;;;5081490;28;20534;-83
2022/02/28 13:01:40;;;;;;;10.37;5.77;;;;;;;;;;5108216;28;20217;-82
2022/02/28 13:04:56;;;;;;;8.77;5.37;;;;;;;;;;5078680;28;20637;-82
2022/02/28 13:08:02;;;;;;;10.20;6.60;;;;;;;;;;5095330;28;20210;-82
2022/02/28 13:11:16;;;;;;;10.07;5.60;;;;;;;;;;5098181;28;20170;-82
2022/02/28 13:14:22;;;;;;;12.23;6.10;;;;;;;;;;5086218;28;20214;-82
2022/02/28 13:17:27;;;;;;;10.40;5.73;;;;;;;;;;5085819;28;20542;-83
2022/02/28 13:20:31;;;;;;;9.03;4.93;;;;;;;;;;5074544;28;20175;-83
2022/02/28 13:23:37;;;;;;;7.27;4.93;;;;;;;;;;5086320;28;20502;-83
2022/02/28 13:26:42;;;;;;;7.57;5.07;;;;;;;;;;5097579;28;20179;-82
2022/02/28 13:29:47;;;;;;;7.90;5.40;;;;;;;;;;5085782;28;20546;-82
2022/02/28 13:32:51;;;;;;;7.67;5.03;;;;;;;;;;5085838;28;20207;-82
2022/02/28 13:35:55;;;;;;;7.20;5.03;;;;;;;;;;5085554;28;20633;-82
2022/02/28 13:38:59;;;;;;;6.60;4.80;;;;;;;;;;5085600;28;20230;-82
2022/02/28 13:42:10;;;;;;;8.93;4.83;;;;;;;;;;5085702;28;20175;-83
2022/02/28 13:45:19;;;;;;;9.40;4.80;;;;;;;;;;5097826;28;20184;-83
2022/02/28 13:48:25;;;;;;;6.60;4.77;;;;;;;;;;5074124;28;20214;-82
2022/02/28 13:51:43;;;;;;;7.13;5.00;;;;;;;;;;5097230;28;20191;-82
2022/02/28 13:54:57;;;;;;;6.20;4.63;;;;;;;;;;5085510;28;20211;-82
2022/02/28 13:58:02;;;;;;;6.23;4.80;;;;;;;;;;5085905;28;20218;-82
2022/02/28 14:01:09;;;;;;;7.23;5.10;;;;;;;;;;5085831;28;20170;-82
2022/02/28 14:04:13;;;;;;;6.23;4.47;;;;;;;;;;5085949;28;20171;-82
2022/02/28 14:07:17;;;;;;;6.07;4.07;;;;;;;;;;5082199;28;20174;-83
2022/02/28 14:10:37;;;;;;;6.63;4.53;;;;;;;;;;5089770;28;20171;-83
2022/02/28 14:13:42;;;;;;;5.77;4.00;;;;;;;;;;5088991;28;20207;-83
2022/02/28 14:16:58;;;;;;;7.47;4.27;;;;;;;;;;5088403;28;20507;-83
2022/02/28 14:20:14;;;;;;;6.03;4.30;;;;;;;;;;5087100;28;20179;-83
2022/02/28 14:23:50;;;;;;;4.90;3.83;;;;;;;;;;5082338;28;20554;-83
2022/02/28 14:27:31;;;;;;;8.50;4.40;;;;;;;;;;5046879;28;20680;-83
2022/02/28 14:31:15;;;;;;;7.50;4.67;;;;;;;;;;5038801;28;20176;-83
2022/02/28 14:34:21;;;;;;;9.30;5.20;;;;;;;;;;5033930;28;20219;-83
2022/02/28 14:37:25;;;;;;;7.30;4.80;;;;;;;;;;5075314;28;20175;-83
2022/02/28 14:40:30;;;;;;;7.47;5.20;;;;;;;;;;5075148;28;20171;-82
2022/02/28 14:43:36;;;;;;;8.53;5.93;;;;;;;;;;5074956;28;20183;-83
2022/02/28 14:46:43;;;;;;;7.57;5.87;;;;;;;;;;5086608;28;20179;-83
2022/02/28 14:49:47;;;;;;;9.97;6.17;;;;;;;;;;5086154;28;20214;-82
2022/02/28 14:52:51;;;;;;;8.80;5.40;;;;;;;;;;5086194;28;20204;-82
2022/02/28 14:55:55;;;;;;;8.77;6.03;;;;;;;;;;5085636;28;20183;-82
2022/02/28 14:59:01;;;;;;;8.97;6.27;;;;;;;;;;5085652;28;20208;-82
2022/02/28 15:02:05;;;;;;;10.93;7.10;;;;;;;;;;5085864;28;20179;-82
2022/02/28 15:05:10;;;;;;;11.03;6.40;;;;;;;;;;5084992;28;20652;-82
2022/02/28 15:08:14;;;;;;;8.43;5.67;;;;;;;;;;5108631;28;20211;-82
2022/02/28 15:11:18;;;;;;;7.80;5.40;;;;;;;;;;5085210;28;20195;-83
2022/02/28 15:14:22;;;;;;;8.73;5.50;;;;;;;;;;5084750;28;20558;-83
2022/02/28 15:17:26;;;;;;;9.30;5.30;;;;;;;;;;5084805;28;20179;-82
2022/02/28 15:20:31;;;;;;;10.50;6.50;;;;;;;;;;5096416;28;20190;-85
2022/02/28 15:23:36;;;;;;;7.53;5.47;;;;;;;;;;5072480;28;20182;-85
2022/02/28 15:26:40;;;;;;;7.53;5.17;;;;;;;;;;5083766;28;20194;-85
2022/02/28 15:29:44;;;;;;;7.60;5.70;;;;;;;;;;5095054;28;20218;-85
2022/02/28 15:32:48;;;;;;;8.60;4.97;;;;;;;;;;5071551;28;20553;-85
2022/02/28 15:35:52;;;;;;;13.13;4.90;;;;;;;;;;5083689;28;20187;-85
2022/02/28 15:38:57;;;;;;;8.70;5.80;;;;;;;;;;5083404;28;20230;-85
2022/02/28 15:42:01;;;;;;;9.47;5.13;;;;;;;;;;5095352;28;20187;-85
2022/02/28 15:45:06;;;;;;;9.40;6.07;;;;;;;;;;5071773;28;20171;-85
2022/02/28 15:48:10;;;;;;;9.03;4.57;;;;;;;;;;5085433;28;20215;-85
2022/02/28 15:51:15;;;;;;;4.73;2.97;;;;;;;;;;5083927;28;20175;-85
2022/02/28 15:54:19;;;;;;;6.13;3.40;;;;;;;;;;5083386;28;20206;-85
2022/02/28 15:57:23;;;;;;;4.87;3.07;;;;;;;;;;5091537;27;20529;-85
2022/02/28 16:00:27;;;;;;;9.03;4.87;;;;;;;;;;5091211;27;20190;-85
2022/02/28 16:03:31;;;;;;;7.83;4.47;;;;;;;;;;5114020;27;20192;-85
2022/02/28 16:06:35;;;;;;;8.17;4.93;;;;;;;;;;5101468;27;20575;-85
2022/02/28 16:09:40;;;;;;;8.80;5.27;;;;;;;;;;5107217;27;20572;-85
2022/02/28 16:12:45;;;;;;;11.47;5.67;;;;;;;;;;5092283;27;20178;-85
2022/02/28 16:15:50;;;;;;;9.33;5.27;;;;;;;;;;5103944;27;20526;-85
2022/02/28 16:18:54;;;;;;;9.23;5.67;;;;;;;;;;5107358;27;20221;-86
2022/02/28 16:21:59;;;;;;;8.13;4.77;;;;;;;;;;5083325;28;20179;-85
2022/02/28 16:25:12;;;;;;;10.43;5.17;;;;;;;;;;5081325;28;20187;-85
2022/02/28 16:28:18;;;;;;;9.07;5.67;;;;;;;;;;5104515;27;20217;-85
2022/02/28 16:31:22;;;;;;;7.20;5.00;;;;;;;;;;5102750;27;20186;-85
2022/02/28 16:34:27;;;;;;;9.60;4.80;;;;;;;;;;5077473;28;20572;-85
2022/02/28 16:37:31;;;;;;;9.00;5.30;;;;;;;;;;5116120;27;20674;-86
2022/02/28 16:40:36;;;;;;;11.60;5.43;;;;;;;;;;5090704;28;20526;-86
2022/02/28 16:43:40;;;;;;;14.70;5.77;;;;;;;;;;5096112;28;20189;-88
2022/02/28 16:46:45;;;;;;;9.77;5.10;;;;;;;;;;5113703;28;20185;-88
2022/02/28 16:50:26;;;;;;;22.83;6.07;;;;;;;;;;5116049;28;20185;-87
2022/02/28 16:53:31;;;;;;;14.37;5.77;;;;;;;;;;5098190;28;20197;-87
2022/02/28 16:56:36;;;;;;;12.87;5.80;;;;;;;;;;5113380;28;20186;-87
2022/02/28 16:59:40;;;;;;;13.57;6.40;;;;;;;;;;5098848;28;20638;-88
2022/02/28 17:02:46;;;;;;;13.93;6.63;;;;;;;;;;5122312;28;20551;-87
2022/02/28 17:05:50;;;;;;;8.33;4.90;;;;;;;;;;5076318;28;20568;-87
2022/02/28 17:08:54;;;;;;;19.60;4.97;;;;;;;;;;5111872;28;20217;-86
2022/02/28 17:11:59;;;;;;;10.13;5.00;;;;;;;;;;5084774;28;20581;-87
2022/02/28 17:15:05;;;;;;;12.27;5.23;;;;;;;;;;5096746;28;20631;-87
2022/02/28 17:18:09;;;;;;;8.70;4.83;;;;;;;;;;5103121;28;20226;-87
2022/02/28 17:21:13;;;;;;;9.77;4.80;;;;;;;;;;5113896;28;20578;-87
2022/02/28 17:24:17;;;;;;;11.50;5.30;;;;;;;;;;5085149;28;20948;-87
2022/02/28 17:27:22;;;;;;;11.80;5.20;;;;;;;;;;5096078;28;20601;-90
2022/02/28 17:30:30;;;;;;;6.60;4.37;;;;;;;;;;5103457;28;20595;-86
2022/02/28 17:33:36;;;;;;;8.83;4.47;;;;;;;;;;5122280;28;20540;-86
2022/02/28 17:36:40;;;;;;;7.53;4.53;;;;;;;;;;5102591;28;20580;-86
2022/02/28 17:39:46;;;;;;;10.00;5.27;;;;;;;;;;5101602;28;20635;-86
2022/02/28 17:42:58;;;;;;;21.03;8.03;;;;;;;;;;5090744;28;20600;-86
2022/02/28 17:49:41;;;;;;;11.77;5.07;;;;;;;;;;5093437;28;20630;-86
2022/02/28 17:52:50;;;;;;;11.30;5.90;;;;;;;;;;5108945;28;20536;-86
2022/02/28 17:55:56;;;;;;;11.37;5.77;;;;;;;;;;5104776;28;20643;-87
2022/02/28 17:59:00;;;;;;;8.93;5.57;;;;;;;;;;5116633;28;20623;-86
2022/02/28 18:02:05;;;;;;;11.37;5.47;;;;;;;;;;5093167;28;20884;-86
2022/02/28 18:05:13;;;;;;;10.77;5.57;;;;;;;;;;5113316;27;20587;-86
2022/02/28 18:08:17;;;;;;;11.97;5.87;;;;;;;;;;5113138;27;20626;-86
2022/02/28 18:11:22;;;;;;;10.37;5.80;;;;;;;;;;5111486;27;20592;-86
2022/02/28 18:14:26;;;;;;;9.70;5.60;;;;;;;;;;5087512;28;20631;-84
2022/02/28 18:17:31;;;;;;;9.90;5.83;;;;;;;;;;5081895;28;20593;-84
2022/02/28 18:20:35;;;;;;;10.70;5.77;;;;;;;;;;5086865;28;20628;-84
2022/02/28 18:23:42;;;;;;;11.03;5.77;;;;;;;;;;5085437;28;21154;-84
2022/02/28 18:26:48;;;;;;;10.43;6.33;;;;;;;;;;5090466;28;20577;-84
2022/02/28 18:29:52;;;;;;;15.10;6.77;;;;;;;;;;5094799;28;20627;-84
2022/02/28 18:32:58;;;;;;;12.17;5.90;;;;;;;;;;5099103;28;20624;-84
2022/02/28 18:36:05;;;;;;;12.50;6.00;;;;;;;;;;5085369;28;20601;-84
2022/02/28 18:39:36;;;;;;;15.20;6.13;;;;;;;;;;5098958;28;20655;-86